Pagrindinis puslapis
METAR-TAF:

METAR-TAF

Oro uostai :

Castlegar, Britų Kolumbija, Kanada

platuma: 49-18N, ilguma: 117-38W, Aukštis: 495 m

Dabartinis oras

Ataskaita buvo paskelbta 12 valandos ir 28 minutes, ne 01:00 UTC
Vėjas 4 kt iš Šiaurės/Šiaurės Vakarų
Temperatūra 2°C
Drėgmė 47%
Slėgis 1026 hPa
Matomumas: 24.1 km
Išsisklaidę debesys ne aukštis 7700 ft

METAR: CYCG 190100Z 33004KT 15SM SCT077 02/M08 A3031 RMK AC4 LAST STFD OBS/NEXT 191400Z SLP287

Laikas: 05:28 (13:28 UTC)

Prognozė

Ataskaita buvo paskelbta 18 valandos ir 50 minutes, ne 18:38 UTC
Prognozė galioja nuo 18 metu 19 UTC su 19 metu 01 UTC
Vėjas 3 kt nuo kintamojo kryptimis
Matomumas: 10 km
Mažai debesys ne aukštis 7000 ft

TAF: CYCG 181838Z 1819/1901 VRB03KT P6SM FEW070 RMK NXT FCST WILL BE ISSUED AT 191545Z

Orai ataskaitas ir orų prognozės (METAR, TAF).

turimą stotys yra geltonos ir raudonos taškus žemėlapyje.

Perkelti pele per norėdami pamatyti stoties vardą.

Tada spustelėkite, norėdami matyti oro stebėjimo ir prognozės.

Norėdami pakeisti žemėlapį: spustelėkite ant žalios mygtukų su juodo kryžiaus žemyn,; žalią mygtuką su brūkšneliu, jei norite nutolinti; arba žalių rodyklių gretimoms žemėlapius.


METAR-TAF: